createdAt,value
2022-08-17T00:01:52.637Z,3.90
2022-08-17T00:05:19.002Z,2.92
2022-08-17T00:08:46.870Z,3.45
2022-08-17T00:12:42.054Z,3.25
2022-08-17T00:16:07.575Z,3.22
2022-08-17T00:19:34.265Z,3.03
2022-08-17T00:23:04.580Z,3.30
2022-08-17T00:26:37.497Z,2.88
2022-08-17T00:30:11.625Z,3.40
2022-08-17T00:33:45.913Z,3.40
2022-08-17T00:37:12.705Z,3.20
2022-08-17T00:40:44.792Z,3.33
2022-08-17T00:44:31.306Z,3.35
2022-08-17T00:47:57.911Z,3.20
2022-08-17T00:51:24.790Z,3.15
2022-08-17T00:54:55.293Z,3.60
2022-08-17T00:58:36.248Z,3.17
2022-08-17T01:02:04.102Z,3.15
2022-08-17T01:08:59.965Z,3.55
2022-08-17T01:12:26.788Z,3.30
2022-08-17T01:15:58.281Z,3.65
2022-08-17T01:19:27.180Z,3.78
2022-08-17T01:22:56.241Z,3.20
2022-08-17T01:26:22.756Z,3.20
2022-08-17T01:29:52.519Z,3.43
2022-08-17T01:33:18.959Z,3.30
2022-08-17T01:36:46.287Z,3.25
2022-08-17T01:40:35.740Z,3.17
2022-08-17T01:44:16.856Z,3.20
2022-08-17T01:47:42.898Z,3.00
2022-08-17T01:51:10.245Z,2.83
2022-08-17T01:54:39.621Z,3.20
2022-08-17T01:58:09.881Z,2.80
2022-08-17T02:01:37.333Z,2.90
2022-08-17T02:05:03.636Z,2.80
2022-08-17T02:08:38.842Z,3.03
2022-08-17T02:12:37.669Z,3.08
2022-08-17T02:16:07.024Z,2.80
2022-08-17T02:23:00.963Z,3.05
2022-08-17T02:26:28.713Z,2.88
2022-08-17T02:29:54.652Z,3.00
2022-08-17T02:33:22.940Z,2.85
2022-08-17T02:36:49.018Z,3.22
2022-08-17T02:40:15.492Z,5.03
2022-08-17T02:43:43.614Z,5.50
2022-08-17T02:47:09.986Z,6.60
2022-08-17T02:50:36.577Z,6.47
2022-08-17T02:54:02.843Z,5.82
2022-08-17T02:57:49.538Z,6.13
2022-08-17T03:01:21.774Z,5.73
2022-08-17T03:04:47.631Z,5.53
2022-08-17T03:08:13.535Z,6.13
2022-08-17T03:11:39.472Z,5.53
2022-08-17T03:15:07.060Z,5.55
2022-08-17T03:18:33.004Z,4.85
2022-08-17T03:22:00.143Z,4.60
2022-08-17T03:25:46.282Z,4.80
2022-08-17T03:29:19.067Z,3.92
2022-08-17T03:32:46.971Z,3.90
2022-08-17T03:36:14.986Z,3.22
2022-08-17T03:39:40.959Z,3.60
2022-08-17T03:43:09.393Z,4.05
2022-08-17T03:46:54.322Z,3.55
2022-08-17T03:50:38.362Z,3.22
2022-08-17T03:54:29.281Z,3.25
2022-08-17T03:58:05.737Z,3.50
2022-08-17T04:01:32.351Z,3.10
2022-08-17T04:04:58.809Z,3.88
2022-08-17T04:08:26.829Z,3.30
2022-08-17T04:11:54.659Z,2.80
2022-08-17T04:15:23.339Z,3.33
2022-08-17T04:18:49.332Z,3.40
2022-08-17T04:22:31.291Z,3.33
2022-08-17T04:26:52.508Z,3.45
2022-08-17T04:30:01.077Z,3.03
2022-08-17T04:33:28.352Z,3.65
2022-08-17T04:36:56.499Z,3.67
2022-08-17T04:40:41.786Z,3.50
2022-08-17T04:44:11.864Z,3.60
2022-08-17T04:47:38.168Z,3.13
2022-08-17T04:51:10.649Z,2.90
2022-08-17T04:54:37.430Z,3.95
2022-08-17T04:58:03.327Z,4.00
2022-08-17T05:01:30.406Z,3.97
2022-08-17T05:04:57.211Z,2.65
2022-08-17T05:08:23.362Z,3.42
2022-08-17T05:11:49.282Z,2.80
2022-08-17T05:15:16.653Z,2.80
2022-08-17T05:22:08.719Z,2.70
2022-08-17T05:25:36.283Z,3.22
2022-08-17T05:29:03.525Z,3.30
2022-08-17T05:32:38.525Z,3.60
2022-08-17T05:36:08.506Z,2.85
2022-08-17T05:39:34.356Z,3.13
2022-08-17T05:43:05.070Z,3.08
2022-08-17T05:46:36.044Z,2.80
2022-08-17T05:50:09.503Z,3.83
2022-08-17T05:53:41.306Z,3.47
2022-08-17T05:57:30.790Z,3.40
2022-08-17T06:01:34.821Z,4.07
2022-08-17T06:05:39.261Z,4.40
2022-08-17T06:09:15.685Z,4.05
2022-08-17T06:13:01.012Z,4.40
2022-08-17T06:16:42.235Z,3.60
2022-08-17T06:20:47.616Z,4.50
2022-08-17T06:24:16.248Z,4.13
2022-08-17T06:27:45.299Z,3.60
2022-08-17T06:31:17.565Z,4.03
2022-08-17T06:34:44.625Z,3.67
2022-08-17T06:42:54.687Z,4.68
2022-08-17T06:46:26.178Z,4.38
2022-08-17T06:50:01.317Z,4.20
2022-08-17T06:53:38.208Z,3.10
2022-08-17T06:57:15.131Z,3.60
2022-08-17T07:00:48.359Z,3.63
2022-08-17T07:04:34.792Z,3.70
2022-08-17T07:08:15.963Z,3.50
2022-08-17T07:11:56.027Z,3.22
2022-08-17T07:15:34.321Z,3.80
2022-08-17T07:19:00.770Z,3.63
2022-08-17T07:22:53.501Z,3.72
2022-08-17T07:26:25.246Z,3.88
2022-08-17T07:29:54.064Z,4.00
2022-08-17T07:33:24.981Z,3.95
2022-08-17T07:37:05.498Z,3.83
2022-08-17T07:40:34.539Z,3.92
2022-08-17T07:44:17.911Z,4.13
2022-08-17T07:48:10.179Z,3.63
2022-08-17T07:51:44.547Z,4.18
2022-08-17T07:55:27.442Z,3.80
2022-08-17T07:59:10.743Z,2.95
2022-08-17T08:02:42.404Z,4.13
2022-08-17T08:06:22.718Z,3.53
2022-08-17T08:09:59.259Z,3.55
2022-08-17T08:13:32.601Z,3.10
2022-08-17T08:17:23.679Z,2.90
2022-08-17T08:20:55.299Z,3.65
2022-08-17T08:24:49.311Z,3.55
2022-08-17T08:28:39.502Z,3.47
2022-08-17T08:32:20.747Z,3.65
2022-08-17T08:36:11.792Z,3.75
2022-08-17T08:39:57.810Z,3.45
2022-08-17T08:43:30.452Z,2.67
2022-08-17T08:47:14.778Z,3.05
2022-08-17T08:50:53.308Z,3.17
2022-08-17T08:54:26.654Z,3.55
2022-08-17T08:58:32.093Z,3.20
2022-08-17T09:02:27.209Z,3.60
2022-08-17T09:06:37.353Z,3.78
2022-08-17T09:10:20.454Z,3.75
2022-08-17T09:14:29.105Z,3.20
2022-08-17T09:18:58.932Z,4.00
2022-08-17T09:22:33.266Z,3.55
2022-08-17T09:26:23.141Z,3.50
2022-08-17T09:29:59.955Z,3.50
2022-08-17T09:33:48.618Z,3.50
2022-08-17T09:37:14.590Z,3.28
2022-08-17T09:41:12.205Z,2.97
2022-08-17T09:44:54.646Z,3.13
2022-08-17T09:48:46.033Z,3.67
2022-08-17T09:52:20.530Z,2.97
2022-08-17T09:55:58.199Z,2.90
2022-08-17T09:59:57.429Z,3.08
2022-08-17T10:03:46.305Z,2.70
2022-08-17T10:07:26.115Z,3.35
2022-08-17T10:11:50.598Z,3.30
2022-08-17T10:15:37.280Z,2.83
2022-08-17T10:20:00.470Z,3.00
2022-08-17T10:23:53.822Z,2.97
2022-08-17T10:27:24.036Z,3.17
2022-08-17T10:31:10.451Z,3.42
2022-08-17T10:35:17.690Z,3.50
2022-08-17T10:39:03.350Z,3.25
2022-08-17T10:42:35.738Z,3.05
2022-08-17T10:46:31.245Z,2.97
2022-08-17T10:50:40.196Z,3.58
2022-08-17T10:54:06.605Z,3.53
2022-08-17T11:01:02.445Z,4.03
2022-08-17T11:04:48.015Z,4.57
2022-08-17T11:08:22.989Z,3.55
2022-08-17T11:12:17.589Z,4.20
2022-08-17T11:16:06.250Z,3.42
2022-08-17T11:19:40.415Z,3.67
2022-08-17T11:23:24.223Z,3.72
2022-08-17T11:27:04.343Z,3.97
2022-08-17T11:30:41.069Z,2.95
2022-08-17T11:34:34.861Z,3.30
2022-08-17T11:38:15.838Z,3.40
2022-08-17T11:42:05.069Z,3.50
2022-08-17T11:45:45.504Z,3.70
2022-08-17T11:50:11.965Z,2.95
2022-08-17T11:53:40.164Z,3.08
2022-08-17T11:57:29.522Z,3.45
2022-08-17T12:01:09.734Z,3.35
2022-08-17T12:05:00.794Z,3.35
2022-08-17T12:08:32.882Z,3.45
2022-08-17T12:12:13.738Z,3.30
2022-08-17T12:15:42.955Z,2.63
2022-08-17T12:19:21.989Z,3.22
2022-08-17T12:23:09.151Z,3.30
2022-08-17T12:26:53.145Z,2.67
2022-08-17T12:30:21.012Z,2.90
2022-08-17T12:33:48.515Z,3.20
2022-08-17T12:37:23.165Z,3.50
2022-08-17T12:40:57.912Z,2.83
2022-08-17T12:44:28.346Z,3.13
2022-08-17T12:48:02.929Z,3.30
2022-08-17T12:51:30.337Z,3.03
2022-08-17T12:54:59.690Z,2.97
2022-08-17T12:58:32.371Z,2.63
2022-08-17T13:02:03.561Z,2.97
2022-08-17T13:05:30.537Z,2.80
2022-08-17T13:09:09.658Z,2.95
2022-08-17T13:12:36.289Z,2.60
2022-08-17T13:19:51.962Z,3.30
2022-08-17T13:23:22.065Z,2.40
2022-08-17T13:27:07.925Z,3.13
2022-08-17T13:30:43.390Z,3.20
2022-08-17T13:34:26.722Z,2.83
2022-08-17T13:38:35.038Z,2.67
2022-08-17T13:45:43.871Z,2.50
2022-08-17T13:49:21.236Z,2.63
2022-08-17T13:52:51.816Z,2.40
2022-08-17T13:56:58.922Z,2.97
2022-08-17T14:00:39.710Z,2.75
2022-08-17T14:04:10.654Z,2.63
2022-08-17T14:07:59.735Z,2.65
2022-08-17T14:11:26.013Z,2.60
2022-08-17T14:18:50.519Z,2.55
2022-08-17T14:25:40.438Z,2.60
2022-08-17T14:29:15.320Z,2.33
2022-08-17T14:32:41.728Z,2.90
2022-08-17T14:36:08.828Z,2.65
2022-08-17T14:39:37.655Z,2.30
2022-08-17T14:43:03.783Z,3.05
2022-08-17T14:46:29.686Z,2.67
2022-08-17T14:49:55.579Z,2.67
2022-08-17T14:53:22.424Z,2.67
2022-08-17T14:56:57.008Z,2.58
2022-08-17T15:00:38.779Z,2.77
2022-08-17T15:04:04.737Z,3.10
2022-08-17T15:07:31.367Z,3.33
2022-08-17T15:10:58.998Z,2.70
2022-08-17T15:14:25.824Z,2.92
2022-08-17T15:17:51.828Z,2.85
2022-08-17T15:21:20.189Z,2.60
2022-08-17T15:24:46.120Z,3.28
2022-08-17T15:28:12.429Z,2.75
2022-08-17T15:31:39.008Z,2.78
2022-08-17T15:35:05.854Z,3.13
2022-08-17T15:38:34.365Z,3.08
2022-08-17T15:42:02.892Z,2.85
2022-08-17T15:45:31.008Z,3.30
2022-08-17T15:49:02.480Z,3.20
2022-08-17T15:52:40.548Z,2.90
2022-08-17T15:56:09.949Z,2.97
2022-08-17T15:59:36.783Z,3.20
2022-08-17T16:06:48.365Z,3.30
2022-08-17T16:10:18.886Z,3.00
2022-08-17T16:13:54.858Z,2.72
2022-08-17T16:17:40.097Z,3.33
2022-08-17T16:21:43.182Z,3.55
2022-08-17T16:25:12.198Z,3.28
2022-08-17T16:28:38.665Z,3.33
2022-08-17T16:32:11.407Z,3.05
2022-08-17T16:35:37.741Z,3.35
2022-08-17T16:39:04.986Z,4.20
2022-08-17T16:42:32.216Z,3.20
2022-08-17T16:46:06.895Z,3.70
2022-08-17T16:49:37.117Z,3.63
2022-08-17T16:53:10.876Z,3.67
2022-08-17T16:56:45.231Z,4.00
2022-08-17T17:00:16.845Z,3.95
2022-08-17T17:03:45.573Z,3.85
2022-08-17T17:07:41.029Z,3.83
2022-08-17T17:11:25.331Z,3.95
2022-08-17T17:15:01.954Z,3.88
2022-08-17T17:18:42.947Z,3.63
2022-08-17T17:22:15.521Z,4.10
2022-08-17T17:25:53.786Z,4.10
2022-08-17T17:29:47.782Z,4.07
2022-08-17T17:33:31.133Z,4.55
2022-08-17T17:37:27.790Z,4.07
2022-08-17T17:41:05.881Z,4.50
2022-08-17T17:44:39.226Z,4.78
2022-08-17T17:48:05.707Z,4.63
2022-08-17T17:52:09.494Z,5.20
2022-08-17T17:55:54.751Z,5.93
2022-08-17T17:59:47.883Z,4.85
2022-08-17T18:03:19.166Z,5.88
2022-08-17T18:07:00.950Z,5.18
2022-08-17T18:10:51.166Z,6.40
2022-08-17T18:14:44.646Z,4.97
2022-08-17T18:18:14.504Z,5.75
2022-08-17T18:21:46.174Z,5.75
2022-08-17T18:25:32.414Z,5.68
2022-08-17T18:28:58.718Z,5.95
2022-08-17T18:32:39.263Z,5.85
2022-08-17T18:36:09.013Z,6.25
2022-08-17T18:39:41.220Z,7.03
2022-08-17T18:43:36.493Z,6.25
2022-08-17T18:47:22.611Z,7.20
2022-08-17T18:50:53.762Z,6.68
2022-08-17T18:54:39.386Z,7.43
2022-08-17T18:58:18.523Z,7.18
2022-08-17T19:01:59.905Z,7.15
2022-08-17T19:05:40.452Z,6.88
2022-08-17T19:09:29.888Z,6.40
2022-08-17T19:13:00.810Z,5.25
2022-08-17T19:16:37.604Z,5.15
2022-08-17T19:20:11.343Z,5.78
2022-08-17T19:24:12.155Z,5.18
2022-08-17T19:27:49.985Z,6.00
2022-08-17T19:31:24.773Z,5.47
2022-08-17T19:34:51.125Z,6.55
2022-08-17T19:38:40.796Z,5.90
2022-08-17T19:42:14.434Z,6.47
2022-08-17T19:46:17.113Z,6.85
2022-08-17T19:49:57.317Z,6.20
2022-08-17T19:54:06.979Z,6.68
2022-08-17T19:57:47.743Z,7.10
2022-08-17T20:01:19.898Z,8.45
2022-08-17T20:05:23.289Z,10.40
2022-08-17T20:09:23.494Z,10.05
2022-08-17T20:13:01.973Z,8.88
2022-08-17T20:16:29.720Z,8.95
2022-08-17T20:20:03.694Z,8.60
2022-08-17T20:23:40.038Z,11.30
2022-08-17T20:27:34.821Z,8.68
2022-08-17T20:31:27.649Z,8.00
2022-08-17T20:35:22.751Z,7.97
2022-08-17T20:39:28.761Z,7.97
2022-08-17T20:43:23.137Z,8.43
2022-08-17T20:46:58.542Z,9.30
2022-08-17T20:50:59.227Z,9.38
2022-08-17T20:54:49.140Z,9.35
2022-08-17T20:58:31.382Z,9.48
2022-08-17T21:02:18.665Z,8.10
2022-08-17T21:06:00.604Z,7.90
2022-08-17T21:09:37.678Z,6.82
2022-08-17T21:13:13.904Z,6.53
2022-08-17T21:17:01.621Z,7.18
2022-08-17T21:21:06.940Z,6.25
2022-08-17T21:24:49.570Z,6.13
2022-08-17T21:29:00.861Z,5.10
2022-08-17T21:32:31.304Z,4.65
2022-08-17T21:36:12.024Z,4.82
2022-08-17T21:39:51.570Z,5.32
2022-08-17T21:43:25.234Z,4.38
2022-08-17T21:47:24.946Z,5.28
2022-08-17T21:51:12.345Z,7.10
2022-08-17T21:54:42.810Z,7.70
2022-08-17T21:58:34.441Z,8.30
2022-08-17T22:02:19.017Z,8.00
2022-08-17T22:05:54.865Z,8.73
2022-08-17T22:09:23.991Z,7.65
2022-08-17T22:13:19.810Z,8.77
2022-08-17T22:16:47.577Z,9.02
2022-08-17T22:20:17.576Z,8.85
2022-08-17T22:24:06.538Z,6.22
2022-08-17T22:27:58.275Z,5.47
2022-08-17T22:31:28.048Z,6.10
2022-08-17T22:35:15.112Z,5.35
2022-08-17T22:38:41.808Z,4.85
2022-08-17T22:42:24.148Z,4.90
2022-08-17T22:45:53.534Z,4.20
2022-08-17T22:49:26.941Z,4.60
2022-08-17T22:53:22.847Z,4.60
2022-08-17T22:57:18.790Z,4.40
2022-08-17T23:00:48.810Z,4.47
2022-08-17T23:04:37.197Z,4.70
2022-08-17T23:08:03.761Z,7.20
2022-08-17T23:11:36.875Z,8.40
2022-08-17T23:15:16.488Z,8.05
2022-08-17T23:18:42.938Z,8.65
2022-08-17T23:22:10.458Z,8.30
2022-08-17T23:25:44.792Z,8.57
2022-08-17T23:29:11.038Z,9.75
2022-08-17T23:32:39.503Z,8.27
2022-08-17T23:36:19.408Z,11.23
2022-08-17T23:39:45.882Z,9.52
2022-08-17T23:43:24.270Z,8.67
2022-08-17T23:46:55.269Z,7.78
2022-08-17T23:50:21.520Z,7.32
2022-08-17T23:53:49.018Z,6.97
2022-08-17T23:57:18.511Z,5.40
